Frankenmuth, Michigan
Current Conditions -  °F | °C
As of 3:15 AM on Thursday 27 Nov 2014 (Local Time) from KHYX Reporting Station
Overcast Overcast  
Wind Chill: 24°   Ceiling: 4500
Heat Index: 30°   Visibility: 10mi
Dew Point: 25°   Wind: 6mph
Humidity: 80%   Direction: 300°WNW
Pressure: 30.11"   Gusts: NA
Location:  43.33°N, 83.74°W
Report Text: KHYX 270815Z AUTO 30005KT 10SM OVC045 M01/M04 A3011 RMK AO2
Loading
Personal Weather Stations






























Interactive Weather Map New forecast layout! Learn more

10-Day Weather Forecast

Advertisements
Track Severe Weather on mobile